Medford, OR (97501)

8:41 PM PDT on September 28, 2016 (GMT -0700)
Southwest Medford (CW2551) | | Change Station

Elev 1472 ft 42.31 °N, 122.90 °W | Updated 9 seconds ago

Clear
Clear
67.9 °F
Feels Like 67.9 °F
N
0.0
Wind Variable Wind from North
Gusts 0.0 mph

Today
High -- | Low -- °F
--% Chance of Precip.
Yesterday
High -- | Low -- °F
Precip. -- in
Pressure 29.86 in
Visibility 10.0 miles
Clouds Clear
Dew Point 53 °F
Humidity 58%
Rainfall 0.00 in
Snow Depth Not available.
7:06 AM 6:57 PM
Waning Crescent, 3% visible
METAR KMFR 290253Z 03009KT 10SM CLR 24/12 A2988 RMK AO2 SLP110 T02390117 53007
Pressure 29.86 in
Visibility 10.0 miles
Clouds Clear
Dew Point 53 °F
Humidity 58%
Rainfall 0.00 in
Snow Depth Not available.
7:06 AM 6:57 PM
Waning Crescent, 3% visible
METAR KMFR 290253Z 03009KT 10SM CLR 24/12 A2988 RMK AO2 SLP110 T02390117 53007

10-Day Weather Forecast

Almanac

Astronomy

Sep. 28, 2016 Rise Set
Actual Time
Civil Twilight
Nautical Twilight
Astronomical Twilight
Moon
Length of Visible Light
Length of Day
Tomorrow will be .
, % of the Moon is Illuminated

Today's Extremes

State Highs State Lows

Community

WunderPhotos

Upload Photos

1,942,416 photos uploaded!

WunderBlog® & News

Nearby

Air Quality

  Air Quality AQ Index Pollutant
Not available.

Snow Depth

Station Depth Elevation

Earthquake Activity

City Distance Mag. Time & Date
Minimum magnitude displayed is 2.5.

Coastal Water Temperatures

Place Temperature

Stations

Nearby Weather Stations

Station Location Temp. Windchill Dew Point Humidity Wind Precip. Elev Updated Type
                   

Watches & Warnings

There are currently no watches in effect.